sensor_id;sensor_type;location;lat;lon;timestamp;P1;durP1;ratioP1;P2;durP2;ratioP2
78207;SDS011;67481;50.244;18.288;2023-11-21T00:01:22;11.43;;;5.05;;
78207;SDS011;67481;50.244;18.288;2023-11-21T00:04:09;11.85;;;4.93;;
78207;SDS011;67481;50.244;18.288;2023-11-21T00:06:57;11.15;;;4.72;;
78207;SDS011;67481;50.244;18.288;2023-11-21T00:09:42;11.68;;;5.05;;
78207;SDS011;67481;50.244;18.288;2023-11-21T00:12:28;10.88;;;5.07;;
78207;SDS011;67481;50.244;18.288;2023-11-21T00:15:14;11.18;;;5.00;;
78207;SDS011;67481;50.244;18.288;2023-11-21T00:18:00;12.73;;;5.20;;
78207;SDS011;67481;50.244;18.288;2023-11-21T00:20:46;13.48;;;5.32;;
78207;SDS011;67481;50.244;18.288;2023-11-21T00:23:32;13.07;;;5.43;;
78207;SDS011;67481;50.244;18.288;2023-11-21T00:26:17;14.80;;;4.78;;
78207;SDS011;67481;50.244;18.288;2023-11-21T00:29:10;11.48;;;5.38;;
78207;SDS011;67481;50.244;18.288;2023-11-21T00:31:56;11.40;;;5.38;;
78207;SDS011;67481;50.244;18.288;2023-11-21T00:34:42;11.77;;;5.07;;
78207;SDS011;67481;50.244;18.288;2023-11-21T00:37:28;12.98;;;5.32;;
78207;SDS011;67481;50.244;18.288;2023-11-21T00:40:14;12.57;;;5.20;;
78207;SDS011;67481;50.244;18.288;2023-11-21T00:43:00;12.65;;;4.93;;
78207;SDS011;67481;50.244;18.288;2023-11-21T00:45:50;9.57;;;4.35;;
78207;SDS011;67481;50.244;18.288;2023-11-21T00:48:36;12.18;;;4.80;;
78207;SDS011;67481;50.244;18.288;2023-11-21T00:51:22;11.20;;;5.07;;
78207;SDS011;67481;50.244;18.288;2023-11-21T00:54:07;11.88;;;5.15;;
78207;SDS011;67481;50.244;18.288;2023-11-21T00:56:53;10.43;;;5.00;;
78207;SDS011;67481;50.244;18.288;2023-11-21T00:59:40;12.80;;;5.00;;
78207;SDS011;67481;50.244;18.288;2023-11-21T01:02:26;13.18;;;5.00;;
78207;SDS011;67481;50.244;18.288;2023-11-21T01:05:11;13.55;;;5.43;;
78207;SDS011;67481;50.244;18.288;2023-11-21T01:07:57;11.20;;;4.80;;
78207;SDS011;67481;50.244;18.288;2023-11-21T01:10:43;12.48;;;4.80;;
78207;SDS011;67481;50.244;18.288;2023-11-21T01:13:31;10.73;;;4.90;;
78207;SDS011;67481;50.244;18.288;2023-11-21T01:16:17;11.70;;;4.85;;
78207;SDS011;67481;50.244;18.288;2023-11-21T01:19:02;11.00;;;4.35;;
78207;SDS011;67481;50.244;18.288;2023-11-21T01:21:49;13.18;;;5.18;;
78207;SDS011;67481;50.244;18.288;2023-11-21T01:24:35;14.15;;;5.57;;
78207;SDS011;67481;50.244;18.288;2023-11-21T01:27:22;12.93;;;5.25;;
78207;SDS011;67481;50.244;18.288;2023-11-21T01:30:08;11.05;;;4.18;;
78207;SDS011;67481;50.244;18.288;2023-11-21T01:32:55;9.70;;;3.83;;
78207;SDS011;67481;50.244;18.288;2023-11-21T01:35:42;9.82;;;3.38;;
78207;SDS011;67481;50.244;18.288;2023-11-21T01:38:28;7.07;;;2.85;;
78207;SDS011;67481;50.244;18.288;2023-11-21T01:41:14;9.80;;;2.60;;
78207;SDS011;67481;50.244;18.288;2023-11-21T01:44:00;9.38;;;3.20;;
78207;SDS011;67481;50.244;18.288;2023-11-21T01:46:46;8.13;;;2.75;;
78207;SDS011;67481;50.244;18.288;2023-11-21T01:49:33;10.38;;;3.25;;
78207;SDS011;67481;50.244;18.288;2023-11-21T01:52:19;10.05;;;3.05;;
78207;SDS011;67481;50.244;18.288;2023-11-21T01:55:06;8.77;;;3.15;;
78207;SDS011;67481;50.244;18.288;2023-11-21T01:57:54;11.05;;;3.60;;
78207;SDS011;67481;50.244;18.288;2023-11-21T02:00:41;9.80;;;3.55;;
78207;SDS011;67481;50.244;18.288;2023-11-21T02:03:27;8.88;;;3.72;;
78207;SDS011;67481;50.244;18.288;2023-11-21T02:06:13;8.40;;;3.67;;
78207;SDS011;67481;50.244;18.288;2023-11-21T02:08:58;10.55;;;4.30;;
78207;SDS011;67481;50.244;18.288;2023-11-21T02:11:45;9.40;;;4.13;;
78207;SDS011;67481;50.244;18.288;2023-11-21T02:14:30;9.43;;;4.25;;
78207;SDS011;67481;50.244;18.288;2023-11-21T02:17:16;9.27;;;4.25;;
78207;SDS011;67481;50.244;18.288;2023-11-21T02:20:04;10.05;;;4.38;;
78207;SDS011;67481;50.244;18.288;2023-11-21T02:22:52;12.75;;;4.75;;
78207;SDS011;67481;50.244;18.288;2023-11-21T02:25:44;12.40;;;5.38;;
78207;SDS011;67481;50.244;18.288;2023-11-21T02:28:30;11.52;;;5.15;;
78207;SDS011;67481;50.244;18.288;2023-11-21T02:31:16;12.60;;;5.68;;
78207;SDS011;67481;50.244;18.288;2023-11-21T02:34:04;17.10;;;7.32;;
78207;SDS011;67481;50.244;18.288;2023-11-21T02:36:51;14.65;;;7.18;;
78207;SDS011;67481;50.244;18.288;2023-11-21T02:39:37;16.73;;;9.85;;
78207;SDS011;67481;50.244;18.288;2023-11-21T02:42:23;26.67;;;14.27;;
78207;SDS011;67481;50.244;18.288;2023-11-21T02:45:09;33.17;;;16.95;;
78207;SDS011;67481;50.244;18.288;2023-11-21T02:47:57;32.13;;;17.40;;
78207;SDS011;67481;50.244;18.288;2023-11-21T02:50:44;29.60;;;15.57;;
78207;SDS011;67481;50.244;18.288;2023-11-21T02:53:29;24.05;;;11.63;;
78207;SDS011;67481;50.244;18.288;2023-11-21T02:56:15;19.77;;;10.68;;
78207;SDS011;67481;50.244;18.288;2023-11-21T02:59:01;19.83;;;9.43;;
78207;SDS011;67481;50.244;18.288;2023-11-21T03:01:51;15.95;;;8.73;;
78207;SDS011;67481;50.244;18.288;2023-11-21T03:04:37;18.48;;;7.88;;
78207;SDS011;67481;50.244;18.288;2023-11-21T03:07:23;16.13;;;7.03;;
78207;SDS011;67481;50.244;18.288;2023-11-21T03:10:09;15.15;;;6.97;;
78207;SDS011;67481;50.244;18.288;2023-11-21T03:12:56;13.02;;;5.85;;
78207;SDS011;67481;50.244;18.288;2023-11-21T03:15:43;15.02;;;5.60;;
78207;SDS011;67481;50.244;18.288;2023-11-21T03:18:28;13.65;;;6.25;;
78207;SDS011;67481;50.244;18.288;2023-11-21T03:21:15;13.45;;;5.80;;
78207;SDS011;67481;50.244;18.288;2023-11-21T03:24:00;15.55;;;6.65;;
78207;SDS011;67481;50.244;18.288;2023-11-21T03:26:46;17.83;;;7.03;;
78207;SDS011;67481;50.244;18.288;2023-11-21T03:29:31;21.05;;;8.45;;
78207;SDS011;67481;50.244;18.288;2023-11-21T03:32:17;20.50;;;7.50;;
78207;SDS011;67481;50.244;18.288;2023-11-21T03:35:04;18.83;;;7.28;;
78207;SDS011;67481;50.244;18.288;2023-11-21T03:37:52;19.35;;;8.93;;
78207;SDS011;67481;50.244;18.288;2023-11-21T03:40:38;21.45;;;10.50;;
78207;SDS011;67481;50.244;18.288;2023-11-21T03:43:24;23.55;;;10.75;;
78207;SDS011;67481;50.244;18.288;2023-11-21T03:46:10;22.65;;;11.18;;
78207;SDS011;67481;50.244;18.288;2023-11-21T03:48:57;25.33;;;12.40;;
78207;SDS011;67481;50.244;18.288;2023-11-21T03:51:43;21.65;;;9.48;;
78207;SDS011;67481;50.244;18.288;2023-11-21T03:54:30;19.60;;;8.65;;
78207;SDS011;67481;50.244;18.288;2023-11-21T03:57:15;20.58;;;8.40;;
78207;SDS011;67481;50.244;18.288;2023-11-21T04:00:01;18.77;;;8.38;;
78207;SDS011;67481;50.244;18.288;2023-11-21T04:02:56;22.00;;;8.13;;
78207;SDS011;67481;50.244;18.288;2023-11-21T04:05:42;17.70;;;8.02;;
78207;SDS011;67481;50.244;18.288;2023-11-21T04:08:28;16.85;;;7.30;;
78207;SDS011;67481;50.244;18.288;2023-11-21T04:11:14;26.13;;;13.43;;
78207;SDS011;67481;50.244;18.288;2023-11-21T04:14:00;29.13;;;14.90;;
78207;SDS011;67481;50.244;18.288;2023-11-21T04:16:46;22.55;;;11.23;;
78207;SDS011;67481;50.244;18.288;2023-11-21T04:19:36;22.40;;;10.13;;
78207;SDS011;67481;50.244;18.288;2023-11-21T04:22:22;26.00;;;11.48;;
78207;SDS011;67481;50.244;18.288;2023-11-21T04:25:12;72.28;;;24.52;;
78207;SDS011;67481;50.244;18.288;2023-11-21T04:28:00;72.82;;;26.75;;
78207;SDS011;67481;50.244;18.288;2023-11-21T04:30:46;66.53;;;26.00;;
78207;SDS011;67481;50.244;18.288;2023-11-21T04:33:31;58.80;;;25.52;;
78207;SDS011;67481;50.244;18.288;2023-11-21T04:36:17;46.72;;;23.48;;
78207;SDS011;67481;50.244;18.288;2023-11-21T04:39:03;50.17;;;27.25;;
78207;SDS011;67481;50.244;18.288;2023-11-21T04:41:48;67.60;;;33.08;;
78207;SDS011;67481;50.244;18.288;2023-11-21T04:44:34;80.82;;;37.45;;
78207;SDS011;67481;50.244;18.288;2023-11-21T04:47:19;93.32;;;38.60;;
78207;SDS011;67481;50.244;18.288;2023-11-21T04:50:05;79.97;;;33.25;;
78207;SDS011;67481;50.244;18.288;2023-11-21T04:52:51;67.05;;;31.95;;
78207;SDS011;67481;50.244;18.288;2023-11-21T04:55:37;46.47;;;25.65;;
78207;SDS011;67481;50.244;18.288;2023-11-21T04:58:23;42.53;;;22.25;;
78207;SDS011;67481;50.244;18.288;2023-11-21T05:01:08;42.38;;;22.95;;
78207;SDS011;67481;50.244;18.288;2023-11-21T05:03:54;36.03;;;19.85;;
78207;SDS011;67481;50.244;18.288;2023-11-21T05:06:42;35.95;;;18.98;;
78207;SDS011;67481;50.244;18.288;2023-11-21T05:09:28;32.00;;;16.10;;
78207;SDS011;67481;50.244;18.288;2023-11-21T05:12:17;36.42;;;18.58;;
78207;SDS011;67481;50.244;18.288;2023-11-21T05:15:06;37.33;;;17.27;;
78207;SDS011;67481;50.244;18.288;2023-11-21T05:17:56;32.63;;;16.05;;
78207;SDS011;67481;50.244;18.288;2023-11-21T05:20:45;34.38;;;18.65;;
78207;SDS011;67481;50.244;18.288;2023-11-21T05:23:35;37.17;;;21.48;;
78207;SDS011;67481;50.244;18.288;2023-11-21T05:26:23;39.38;;;22.30;;
78207;SDS011;67481;50.244;18.288;2023-11-21T05:29:10;33.38;;;18.80;;
78207;SDS011;67481;50.244;18.288;2023-11-21T05:31:56;30.33;;;14.63;;
78207;SDS011;67481;50.244;18.288;2023-11-21T05:34:42;32.90;;;15.05;;
78207;SDS011;67481;50.244;18.288;2023-11-21T05:37:28;28.77;;;14.48;;
78207;SDS011;67481;50.244;18.288;2023-11-21T05:40:15;28.60;;;12.25;;
78207;SDS011;67481;50.244;18.288;2023-11-21T05:43:02;21.55;;;10.20;;
78207;SDS011;67481;50.244;18.288;2023-11-21T05:45:51;22.05;;;9.88;;
78207;SDS011;67481;50.244;18.288;2023-11-21T05:48:37;21.45;;;10.35;;
78207;SDS011;67481;50.244;18.288;2023-11-21T05:51:26;19.52;;;9.40;;
78207;SDS011;67481;50.244;18.288;2023-11-21T05:54:38;20.58;;;9.20;;
78207;SDS011;67481;50.244;18.288;2023-11-21T05:57:24;20.40;;;9.45;;
78207;SDS011;67481;50.244;18.288;2023-11-21T06:00:13;20.13;;;9.35;;
78207;SDS011;67481;50.244;18.288;2023-11-21T06:03:07;18.63;;;8.60;;
78207;SDS011;67481;50.244;18.288;2023-11-21T06:05:57;18.85;;;8.77;;
78207;SDS011;67481;50.244;18.288;2023-11-21T06:08:45;21.30;;;9.68;;
78207;SDS011;67481;50.244;18.288;2023-11-21T06:11:43;19.75;;;9.98;;
78207;SDS011;67481;50.244;18.288;2023-11-21T06:14:31;24.52;;;9.43;;
78207;SDS011;67481;50.244;18.288;2023-11-21T06:17:19;22.95;;;11.02;;
78207;SDS011;67481;50.244;18.288;2023-11-21T06:20:12;23.75;;;11.32;;
78207;SDS011;67481;50.244;18.288;2023-11-21T06:23:00;22.83;;;11.40;;
78207;SDS011;67481;50.244;18.288;2023-11-21T06:25:49;32.63;;;16.85;;
78207;SDS011;67481;50.244;18.288;2023-11-21T06:28:34;57.58;;;25.88;;
78207;SDS011;67481;50.244;18.288;2023-11-21T06:31:21;61.08;;;26.20;;
78207;SDS011;67481;50.244;18.288;2023-11-21T06:34:08;114.20;;;40.88;;
78207;SDS011;67481;50.244;18.288;2023-11-21T06:36:55;81.93;;;33.30;;
78207;SDS011;67481;50.244;18.288;2023-11-21T06:39:41;96.55;;;34.42;;
78207;SDS011;67481;50.244;18.288;2023-11-21T06:42:27;86.80;;;32.88;;
78207;SDS011;67481;50.244;18.288;2023-11-21T06:45:15;70.63;;;30.08;;
78207;SDS011;67481;50.244;18.288;2023-11-21T06:48:01;79.85;;;32.03;;
78207;SDS011;67481;50.244;18.288;2023-11-21T06:50:47;116.10;;;39.78;;
78207;SDS011;67481;50.244;18.288;2023-11-21T06:53:33;135.73;;;48.35;;
78207;SDS011;67481;50.244;18.288;2023-11-21T06:56:22;156.23;;;54.63;;
78207;SDS011;67481;50.244;18.288;2023-11-21T06:59:08;138.07;;;51.88;;
78207;SDS011;67481;50.244;18.288;2023-11-21T07:01:54;121.40;;;48.30;;
78207;SDS011;67481;50.244;18.288;2023-11-21T07:04:40;89.78;;;39.75;;
78207;SDS011;67481;50.244;18.288;2023-11-21T07:07:28;80.50;;;39.63;;
78207;SDS011;67481;50.244;18.288;2023-11-21T07:10:14;78.63;;;35.88;;
78207;SDS011;67481;50.244;18.288;2023-11-21T07:12:59;77.40;;;36.70;;
78207;SDS011;67481;50.244;18.288;2023-11-21T07:15:45;70.65;;;32.22;;
78207;SDS011;67481;50.244;18.288;2023-11-21T07:18:30;68.32;;;30.75;;
78207;SDS011;67481;50.244;18.288;2023-11-21T07:21:16;67.57;;;30.80;;
78207;SDS011;67481;50.244;18.288;2023-11-21T07:24:02;70.25;;;32.08;;
78207;SDS011;67481;50.244;18.288;2023-11-21T07:26:48;59.90;;;30.00;;
78207;SDS011;67481;50.244;18.288;2023-11-21T07:29:34;62.70;;;29.38;;
78207;SDS011;67481;50.244;18.288;2023-11-21T07:32:20;72.88;;;31.75;;
78207;SDS011;67481;50.244;18.288;2023-11-21T07:35:06;64.50;;;30.65;;
78207;SDS011;67481;50.244;18.288;2023-11-21T07:37:53;55.55;;;26.52;;
78207;SDS011;67481;50.244;18.288;2023-11-21T07:40:39;55.03;;;27.92;;
78207;SDS011;67481;50.244;18.288;2023-11-21T07:43:25;61.88;;;28.80;;
78207;SDS011;67481;50.244;18.288;2023-11-21T07:46:11;62.92;;;30.52;;
78207;SDS011;67481;50.244;18.288;2023-11-21T07:48:58;65.72;;;31.10;;
78207;SDS011;67481;50.244;18.288;2023-11-21T07:51:44;61.05;;;28.98;;
78207;SDS011;67481;50.244;18.288;2023-11-21T07:54:29;61.05;;;31.02;;
78207;SDS011;67481;50.244;18.288;2023-11-21T07:57:15;60.78;;;31.10;;
78207;SDS011;67481;50.244;18.288;2023-11-21T08:00:01;62.78;;;30.75;;
78207;SDS011;67481;50.244;18.288;2023-11-21T08:02:56;92.85;;;38.63;;
78207;SDS011;67481;50.244;18.288;2023-11-21T08:05:42;86.53;;;38.17;;
78207;SDS011;67481;50.244;18.288;2023-11-21T08:08:28;64.35;;;27.08;;
78207;SDS011;67481;50.244;18.288;2023-11-21T08:11:13;45.05;;;21.55;;
78207;SDS011;67481;50.244;18.288;2023-11-21T08:13:59;40.95;;;19.02;;
78207;SDS011;67481;50.244;18.288;2023-11-21T08:16:45;31.00;;;15.90;;
78207;SDS011;67481;50.244;18.288;2023-11-21T08:19:31;30.27;;;13.40;;
78207;SDS011;67481;50.244;18.288;2023-11-21T08:22:18;30.85;;;14.07;;
78207;SDS011;67481;50.244;18.288;2023-11-21T08:25:04;32.22;;;14.10;;
78207;SDS011;67481;50.244;18.288;2023-11-21T08:27:50;29.80;;;12.90;;
78207;SDS011;67481;50.244;18.288;2023-11-21T08:30:36;29.30;;;14.90;;
78207;SDS011;67481;50.244;18.288;2023-11-21T08:33:22;34.47;;;15.57;;
78207;SDS011;67481;50.244;18.288;2023-11-21T08:36:08;30.83;;;15.32;;
78207;SDS011;67481;50.244;18.288;2023-11-21T08:38:54;27.00;;;13.88;;
78207;SDS011;67481;50.244;18.288;2023-11-21T08:41:40;25.75;;;11.88;;
78207;SDS011;67481;50.244;18.288;2023-11-21T08:44:26;23.90;;;9.18;;
78207;SDS011;67481;50.244;18.288;2023-11-21T08:47:12;18.70;;;6.82;;
78207;SDS011;67481;50.244;18.288;2023-11-21T08:49:58;14.13;;;6.72;;
78207;SDS011;67481;50.244;18.288;2023-11-21T08:52:44;13.65;;;6.40;;
78207;SDS011;67481;50.244;18.288;2023-11-21T08:55:33;16.40;;;6.88;;
78207;SDS011;67481;50.244;18.288;2023-11-21T08:58:22;15.77;;;5.93;;
78207;SDS011;67481;50.244;18.288;2023-11-21T09:01:08;15.20;;;6.55;;
78207;SDS011;67481;50.244;18.288;2023-11-21T09:03:54;19.80;;;7.47;;
78207;SDS011;67481;50.244;18.288;2023-11-21T09:06:40;18.23;;;6.82;;
78207;SDS011;67481;50.244;18.288;2023-11-21T09:09:26;21.75;;;7.47;;
78207;SDS011;67481;50.244;18.288;2023-11-21T09:12:12;20.58;;;7.35;;
78207;SDS011;67481;50.244;18.288;2023-11-21T09:14:57;19.13;;;7.20;;
78207;SDS011;67481;50.244;18.288;2023-11-21T09:17:43;19.50;;;6.72;;
78207;SDS011;67481;50.244;18.288;2023-11-21T09:20:30;15.35;;;6.35;;
78207;SDS011;67481;50.244;18.288;2023-11-21T09:23:16;16.10;;;5.07;;
78207;SDS011;67481;50.244;18.288;2023-11-21T09:26:01;17.02;;;5.30;;
78207;SDS011;67481;50.244;18.288;2023-11-21T09:28:47;14.88;;;5.00;;
78207;SDS011;67481;50.244;18.288;2023-11-21T09:31:33;10.85;;;3.72;;
78207;SDS011;67481;50.244;18.288;2023-11-21T09:34:19;9.80;;;3.08;;
78207;SDS011;67481;50.244;18.288;2023-11-21T09:37:06;8.35;;;2.47;;
78207;SDS011;67481;50.244;18.288;2023-11-21T09:39:52;6.63;;;2.10;;
78207;SDS011;67481;50.244;18.288;2023-11-21T09:42:39;11.32;;;3.40;;
78207;SDS011;67481;50.244;18.288;2023-11-21T09:45:29;9.55;;;3.00;;
78207;SDS011;67481;50.244;18.288;2023-11-21T09:48:20;8.25;;;2.60;;
78207;SDS011;67481;50.244;18.288;2023-11-21T09:51:06;10.35;;;2.97;;
78207;SDS011;67481;50.244;18.288;2023-11-21T09:53:53;7.20;;;2.90;;
78207;SDS011;67481;50.244;18.288;2023-11-21T09:56:39;8.50;;;3.05;;
78207;SDS011;67481;50.244;18.288;2023-11-21T09:59:26;7.50;;;2.80;;
78207;SDS011;67481;50.244;18.288;2023-11-21T10:02:16;8.77;;;3.00;;
78207;SDS011;67481;50.244;18.288;2023-11-21T10:05:03;10.13;;;2.80;;
78207;SDS011;67481;50.244;18.288;2023-11-21T10:08:09;9.05;;;2.85;;
78207;SDS011;67481;50.244;18.288;2023-11-21T10:10:56;10.25;;;3.15;;
78207;SDS011;67481;50.244;18.288;2023-11-21T10:13:42;8.57;;;2.35;;
78207;SDS011;67481;50.244;18.288;2023-11-21T10:16:31;7.82;;;2.17;;
78207;SDS011;67481;50.244;18.288;2023-11-21T10:19:17;7.65;;;2.22;;
78207;SDS011;67481;50.244;18.288;2023-11-21T10:22:04;6.28;;;1.60;;
78207;SDS011;67481;50.244;18.288;2023-11-21T10:24:52;4.78;;;0.85;;
78207;SDS011;67481;50.244;18.288;2023-11-21T10:27:39;4.30;;;1.42;;
78207;SDS011;67481;50.244;18.288;2023-11-21T10:30:27;5.38;;;1.50;;
78207;SDS011;67481;50.244;18.288;2023-11-21T10:33:14;5.57;;;1.40;;
78207;SDS011;67481;50.244;18.288;2023-11-21T10:36:00;7.00;;;1.60;;
78207;SDS011;67481;50.244;18.288;2023-11-21T10:38:46;5.70;;;1.20;;
78207;SDS011;67481;50.244;18.288;2023-11-21T10:41:36;6.47;;;1.30;;
78207;SDS011;67481;50.244;18.288;2023-11-21T10:44:23;5.38;;;1.20;;
78207;SDS011;67481;50.244;18.288;2023-11-21T10:47:10;9.05;;;2.88;;
78207;SDS011;67481;50.244;18.288;2023-11-21T10:49:57;7.00;;;2.72;;
78207;SDS011;67481;50.244;18.288;2023-11-21T10:52:44;7.63;;;2.20;;
78207;SDS011;67481;50.244;18.288;2023-11-21T10:55:33;6.93;;;1.30;;
78207;SDS011;67481;50.244;18.288;2023-11-21T10:58:20;5.82;;;1.15;;
78207;SDS011;67481;50.244;18.288;2023-11-21T11:01:06;5.35;;;1.00;;
78207;SDS011;67481;50.244;18.288;2023-11-21T11:03:53;5.75;;;1.13;;
78207;SDS011;67481;50.244;18.288;2023-11-21T11:06:41;6.60;;;0.95;;
78207;SDS011;67481;50.244;18.288;2023-11-21T11:09:28;6.53;;;1.30;;
78207;SDS011;67481;50.244;18.288;2023-11-21T11:12:16;5.72;;;1.10;;
78207;SDS011;67481;50.244;18.288;2023-11-21T11:15:02;5.57;;;1.15;;
78207;SDS011;67481;50.244;18.288;2023-11-21T11:17:50;4.60;;;1.40;;
78207;SDS011;67481;50.244;18.288;2023-11-21T11:20:37;5.07;;;1.48;;
78207;SDS011;67481;50.244;18.288;2023-11-21T11:23:28;9.75;;;2.03;;
78207;SDS011;67481;50.244;18.288;2023-11-21T11:30:00;6.28;;;1.75;;
78207;SDS011;67481;50.244;18.288;2023-11-21T11:33:05;9.07;;;2.47;;
78207;SDS011;67481;50.244;18.288;2023-11-21T11:38:45;9.82;;;2.22;;
78207;SDS011;67481;50.244;18.288;2023-11-21T11:41:31;7.10;;;1.55;;
78207;SDS011;67481;50.244;18.288;2023-11-21T11:47:32;6.10;;;1.48;;
78207;SDS011;67481;50.244;18.288;2023-11-21T11:50:23;8.93;;;1.73;;
78207;SDS011;67481;50.244;18.288;2023-11-21T11:53:14;6.45;;;1.42;;
78207;SDS011;67481;50.244;18.288;2023-11-21T11:56:18;8.25;;;2.00;;
78207;SDS011;67481;50.244;18.288;2023-11-21T11:59:11;9.93;;;1.73;;
78207;SDS011;67481;50.244;18.288;2023-11-21T12:01:57;14.02;;;2.10;;
78207;SDS011;67481;50.244;18.288;2023-11-21T12:04:43;5.38;;;1.30;;
78207;SDS011;67481;50.244;18.288;2023-11-21T12:10:49;5.47;;;1.10;;
78207;SDS011;67481;50.244;18.288;2023-11-21T12:13:35;7.53;;;1.25;;
78207;SDS011;67481;50.244;18.288;2023-11-21T12:16:23;7.78;;;1.60;;
78207;SDS011;67481;50.244;18.288;2023-11-21T12:19:12;8.02;;;1.83;;
78207;SDS011;67481;50.244;18.288;2023-11-21T12:21:58;5.20;;;1.25;;
78207;SDS011;67481;50.244;18.288;2023-11-21T12:24:44;6.50;;;1.95;;
78207;SDS011;67481;50.244;18.288;2023-11-21T12:27:30;8.85;;;2.60;;
78207;SDS011;67481;50.244;18.288;2023-11-21T12:30:20;11.93;;;4.78;;
78207;SDS011;67481;50.244;18.288;2023-11-21T12:33:07;8.77;;;3.60;;
78207;SDS011;67481;50.244;18.288;2023-11-21T12:35:55;9.52;;;3.15;;
78207;SDS011;67481;50.244;18.288;2023-11-21T12:38:42;11.98;;;4.07;;
78207;SDS011;67481;50.244;18.288;2023-11-21T12:41:28;10.02;;;4.45;;
78207;SDS011;67481;50.244;18.288;2023-11-21T12:44:14;10.23;;;3.67;;
78207;SDS011;67481;50.244;18.288;2023-11-21T12:47:00;16.67;;;8.18;;
78207;SDS011;67481;50.244;18.288;2023-11-21T12:49:47;18.80;;;12.07;;
78207;SDS011;67481;50.244;18.288;2023-11-21T12:52:34;17.05;;;8.95;;
78207;SDS011;67481;50.244;18.288;2023-11-21T12:55:20;29.20;;;17.42;;
78207;SDS011;67481;50.244;18.288;2023-11-21T12:58:07;47.92;;;29.67;;
78207;SDS011;67481;50.244;18.288;2023-11-21T13:00:56;53.30;;;34.97;;
78207;SDS011;67481;50.244;18.288;2023-11-21T13:03:43;37.47;;;22.45;;
78207;SDS011;67481;50.244;18.288;2023-11-21T13:06:30;24.92;;;13.68;;
78207;SDS011;67481;50.244;18.288;2023-11-21T13:09:19;15.80;;;6.30;;
78207;SDS011;67481;50.244;18.288;2023-11-21T13:12:07;8.65;;;2.67;;
78207;SDS011;67481;50.244;18.288;2023-11-21T13:14:55;11.40;;;2.40;;
78207;SDS011;67481;50.244;18.288;2023-11-21T13:17:40;10.52;;;2.95;;
78207;SDS011;67481;50.244;18.288;2023-11-21T13:20:27;23.55;;;9.77;;
78207;SDS011;67481;50.244;18.288;2023-11-21T13:23:13;33.22;;;13.90;;
78207;SDS011;67481;50.244;18.288;2023-11-21T13:26:01;39.72;;;16.70;;
78207;SDS011;67481;50.244;18.288;2023-11-21T13:28:53;23.83;;;8.80;;
78207;SDS011;67481;50.244;18.288;2023-11-21T13:31:39;11.50;;;3.63;;
78207;SDS011;67481;50.244;18.288;2023-11-21T13:34:24;15.20;;;5.53;;
78207;SDS011;67481;50.244;18.288;2023-11-21T13:37:18;17.67;;;5.65;;
78207;SDS011;67481;50.244;18.288;2023-11-21T13:40:03;28.52;;;7.55;;
78207;SDS011;67481;50.244;18.288;2023-11-21T13:43:02;15.95;;;5.90;;
78207;SDS011;67481;50.244;18.288;2023-11-21T13:46:01;10.70;;;2.85;;
78207;SDS011;67481;50.244;18.288;2023-11-21T13:48:54;13.65;;;6.43;;
78207;SDS011;67481;50.244;18.288;2023-11-21T13:51:43;15.32;;;6.25;;
78207;SDS011;67481;50.244;18.288;2023-11-21T13:54:35;15.20;;;6.57;;
78207;SDS011;67481;50.244;18.288;2023-11-21T13:57:21;15.07;;;5.65;;
78207;SDS011;67481;50.244;18.288;2023-11-21T14:00:07;15.80;;;5.50;;
78207;SDS011;67481;50.244;18.288;2023-11-21T14:02:56;11.93;;;4.38;;
78207;SDS011;67481;50.244;18.288;2023-11-21T14:05:46;14.48;;;5.53;;
78207;SDS011;67481;50.244;18.288;2023-11-21T14:08:37;15.63;;;4.35;;
78207;SDS011;67481;50.244;18.288;2023-11-21T14:11:23;13.02;;;4.57;;
78207;SDS011;67481;50.244;18.288;2023-11-21T14:14:17;13.70;;;5.00;;
78207;SDS011;67481;50.244;18.288;2023-11-21T14:17:03;14.57;;;5.20;;
78207;SDS011;67481;50.244;18.288;2023-11-21T14:19:53;16.83;;;5.32;;
78207;SDS011;67481;50.244;18.288;2023-11-21T14:22:41;14.25;;;5.15;;
78207;SDS011;67481;50.244;18.288;2023-11-21T14:25:27;18.67;;;6.07;;
78207;SDS011;67481;50.244;18.288;2023-11-21T14:28:13;16.60;;;5.53;;
78207;SDS011;67481;50.244;18.288;2023-11-21T14:31:00;25.10;;;8.30;;
78207;SDS011;67481;50.244;18.288;2023-11-21T14:33:45;25.75;;;10.80;;
78207;SDS011;67481;50.244;18.288;2023-11-21T14:36:41;21.25;;;8.93;;
78207;SDS011;67481;50.244;18.288;2023-11-21T14:39:28;27.48;;;10.15;;
78207;SDS011;67481;50.244;18.288;2023-11-21T14:42:24;21.42;;;6.55;;
78207;SDS011;67481;50.244;18.288;2023-11-21T14:45:13;17.65;;;6.07;;
78207;SDS011;67481;50.244;18.288;2023-11-21T14:48:04;15.95;;;5.75;;
78207;SDS011;67481;50.244;18.288;2023-11-21T14:50:51;16.58;;;7.05;;
78207;SDS011;67481;50.244;18.288;2023-11-21T14:53:36;19.10;;;5.97;;
78207;SDS011;67481;50.244;18.288;2023-11-21T14:56:29;21.83;;;6.85;;
78207;SDS011;67481;50.244;18.288;2023-11-21T14:59:19;17.00;;;8.00;;
78207;SDS011;67481;50.244;18.288;2023-11-21T15:02:05;17.48;;;7.32;;
78207;SDS011;67481;50.244;18.288;2023-11-21T15:05:01;21.85;;;8.73;;
78207;SDS011;67481;50.244;18.288;2023-11-21T15:07:51;26.73;;;11.27;;
78207;SDS011;67481;50.244;18.288;2023-11-21T15:10:42;26.25;;;10.88;;
78207;SDS011;67481;50.244;18.288;2023-11-21T15:13:36;24.15;;;10.00;;
78207;SDS011;67481;50.244;18.288;2023-11-21T15:17:11;27.00;;;11.80;;
78207;SDS011;67481;50.244;18.288;2023-11-21T15:20:23;21.65;;;9.60;;
78207;SDS011;67481;50.244;18.288;2023-11-21T15:23:09;24.35;;;10.93;;
78207;SDS011;67481;50.244;18.288;2023-11-21T15:26:00;29.00;;;12.65;;
78207;SDS011;67481;50.244;18.288;2023-11-21T15:29:11;23.80;;;10.95;;
78207;SDS011;67481;50.244;18.288;2023-11-21T15:32:26;38.40;;;20.20;;
78207;SDS011;67481;50.244;18.288;2023-11-21T15:35:21;24.08;;;11.73;;
78207;SDS011;67481;50.244;18.288;2023-11-21T15:38:10;39.95;;;22.08;;
78207;SDS011;67481;50.244;18.288;2023-11-21T15:41:00;52.60;;;28.17;;
78207;SDS011;67481;50.244;18.288;2023-11-21T15:43:46;63.83;;;30.55;;
78207;SDS011;67481;50.244;18.288;2023-11-21T15:46:34;53.40;;;24.38;;
78207;SDS011;67481;50.244;18.288;2023-11-21T15:49:21;37.15;;;17.52;;
78207;SDS011;67481;50.244;18.288;2023-11-21T15:52:08;35.20;;;17.48;;
78207;SDS011;67481;50.244;18.288;2023-11-21T15:54:56;67.10;;;26.23;;
78207;SDS011;67481;50.244;18.288;2023-11-21T15:57:42;34.28;;;16.88;;
78207;SDS011;67481;50.244;18.288;2023-11-21T16:00:28;23.67;;;12.27;;
78207;SDS011;67481;50.244;18.288;2023-11-21T16:03:19;36.08;;;18.25;;
78207;SDS011;67481;50.244;18.288;2023-11-21T16:06:36;29.98;;;13.90;;
78207;SDS011;67481;50.244;18.288;2023-11-21T16:09:24;26.10;;;12.32;;
78207;SDS011;67481;50.244;18.288;2023-11-21T16:12:19;27.60;;;12.10;;
78207;SDS011;67481;50.244;18.288;2023-11-21T16:15:09;30.17;;;13.15;;
78207;SDS011;67481;50.244;18.288;2023-11-21T16:17:58;36.53;;;17.38;;
78207;SDS011;67481;50.244;18.288;2023-11-21T16:20:44;44.58;;;23.83;;
78207;SDS011;67481;50.244;18.288;2023-11-21T16:23:30;36.85;;;16.92;;
78207;SDS011;67481;50.244;18.288;2023-11-21T16:26:16;27.30;;;12.05;;
78207;SDS011;67481;50.244;18.288;2023-11-21T16:29:04;35.17;;;16.15;;
78207;SDS011;67481;50.244;18.288;2023-11-21T16:31:59;34.08;;;13.73;;